EDSB

Karlsruhe Baden-Baden Airport

Baden-Baden, Germany
METAR EDSB 172050Z 02006KT 5000 -DZ BR FEW004 BKN012 01/01 Q1024
Observed Flight Rules
Feb-17 @ 20:50 UTC (43 minutes ago) Marginal Visual Flight Rules
Wind Visibility Clouds Conditions
20° at 6 knots 5,005 meters
  • Few at 400' AGL
  • Broken at 1,200' AGL
  • Light Drizzle
  • Mist
Temperatures Readings
Current 1°C / 34°F
Dewpoint 1°C / 34°F
Humidity 100%
Altimeter 30.24" Hg
Pressure 1024 hPa
Elevation 124
METAR EDSB 172050Z 02006KT 5000 -DZ BR FEW004 BKN012 01/01 Q1024
Observed Flight Rules
Feb-17 @ 20:50 UTC
(43 minutes ago)
MVFR
Wind Visibility
20° at 6 knots 5,005 meters
Clouds
  • Few at 400' AGL
  • Broken at 1,200' AGL
Conditions
  • Light Drizzle
  • Mist
Temperature Dewpoint
1°C / 34°F 1°C / 34°F
Humidity Altimeter Pressure
100% 30.24" Hg 1024 hPa